Time,TemperatureF,DewpointF,PressureIn,WindDirection,WindDirectionDegrees,WindSpeedMPH,WindSpeedGustMPH,Humidity,HourlyPrecipIn,Conditions,Clouds,dailyrainin,SoftwareType,DateUTC
2013-04-04 00:00:00,49.6,48.2,30.03,North,350,0.0,-999.0,95,0.00,,,0.00,WeatherSnoop3.0,2013-04-04 05:00:00,
2013-04-04 00:05:00,49.6,48.2,30.03,NNW,341,0.0,-999.0,95,0.00,,,0.00,WeatherSnoop3.0,2013-04-04 05:05:00,
2013-04-04 00:10:00,49.6,48.2,30.00,North,5,0.0,-999.0,95,0.00,,,0.00,WeatherSnoop3.0,2013-04-04 05:10:00,
2013-04-04 00:15:00,49.5,48.1,29.98,NNE,17,0.0,-999.0,95,0.00,,,0.00,WeatherSnoop3.0,2013-04-04 05:15:00,
2013-04-04 00:20:00,49.5,48.1,29.99,North,9,0.0,-999.0,95,0.00,,,0.00,WeatherSnoop3.0,2013-04-04 05:20:00,
2013-04-04 00:25:00,49.5,48.4,30.01,NE,34,0.0,-999.0,96,0.00,,,0.00,WeatherSnoop3.0,2013-04-04 05:25:00,
2013-04-04 00:30:00,49.5,48.1,30.03,NW,324,0.0,-999.0,95,0.00,,,0.00,WeatherSnoop3.0,2013-04-04 05:30:00,
2013-04-04 00:35:00,49.5,48.4,30.03,NW,315,0.0,-999.0,96,0.00,,,0.00,WeatherSnoop3.0,2013-04-04 05:35:00,
2013-04-04 00:40:00,49.5,48.4,30.04,NW,304,0.0,-999.0,96,0.00,,,0.00,WeatherSnoop3.0,2013-04-04 05:40:00,
2013-04-04 00:45:00,49.4,48.3,30.03,NNW,336,0.0,-999.0,96,0.00,,,0.00,WeatherSnoop3.0,2013-04-04 05:45:00,
2013-04-04 00:50:00,49.4,48.3,30.02,NW,323,0.0,-999.0,96,0.00,,,0.00,WeatherSnoop3.0,2013-04-04 05:50:00,
2013-04-04 00:55:00,49.4,48.3,30.04,NW,310,0.0,-999.0,96,0.00,,,0.00,WeatherSnoop3.0,2013-04-04 05:55:00,
2013-04-04 01:00:00,49.3,48.2,30.04,NNW,332,0.0,-999.0,96,0.00,,,0.00,WeatherSnoop3.0,2013-04-04 06:00:00,
2013-04-04 01:05:00,49.2,48.1,30.01,NNE,22,0.0,-999.0,96,0.00,,,0.00,WeatherSnoop3.0,2013-04-04 06:05:00,
2013-04-04 01:10:00,49.1,48.0,30.03,NW,321,0.0,-999.0,96,0.00,,,0.00,WeatherSnoop3.0,2013-04-04 06:10:00,
2013-04-04 01:15:00,49.0,47.9,30.03,NNW,329,0.0,-999.0,96,0.00,,,0.00,WeatherSnoop3.0,2013-04-04 06:15:00,
2013-04-04 01:20:00,48.8,47.7,30.00,North,360,0.0,-999.0,96,0.00,,,0.00,WeatherSnoop3.0,2013-04-04 06:20:00,
2013-04-04 01:25:00,48.8,47.7,30.04,North,360,0.0,-999.0,96,0.00,,,0.00,WeatherSnoop3.0,2013-04-04 06:25:00,
2013-04-04 01:30:00,48.8,47.7,30.03,North,360,0.0,-999.0,96,0.00,,,0.00,WeatherSnoop3.0,2013-04-04 06:30:00,
2013-04-04 01:35:00,48.7,47.6,30.03,NW,323,0.0,-999.0,96,0.00,,,0.00,WeatherSnoop3.0,2013-04-04 06:35:00,
2013-04-04 01:40:00,48.7,47.6,30.01,NNW,336,0.0,-999.0,96,0.00,,,0.00,WeatherSnoop3.0,2013-04-04 06:40:00,
2013-04-04 01:45:00,48.6,47.5,30.00,NNW,329,0.0,-999.0,96,0.00,,,0.00,WeatherSnoop3.0,2013-04-04 06:45:00,
2013-04-04 01:50:00,48.6,47.5,30.00,NNW,333,0.0,-999.0,96,0.00,,,0.00,WeatherSnoop3.0,2013-04-04 06:50:00,
2013-04-04 01:55:00,48.5,47.7,29.98,NNE,13,0.0,-999.0,97,0.00,,,0.00,WeatherSnoop3.0,2013-04-04 06:55:00,
2013-04-04 02:00:00,48.5,47.7,29.98,North,5,0.0,-999.0,97,0.00,,,0.00,WeatherSnoop3.0,2013-04-04 07:00:00,
2013-04-04 02:05:00,48.4,47.6,29.98,NNW,333,0.0,-999.0,97,0.00,,,0.00,WeatherSnoop3.0,2013-04-04 07:05:00,
2013-04-04 02:10:00,48.4,47.6,29.98,NNE,14,0.0,-999.0,97,0.00,,,0.00,WeatherSnoop3.0,2013-04-04 07:10:00,
2013-04-04 02:15:00,48.4,47.6,29.99,NW,326,0.0,-999.0,97,0.00,,,0.00,WeatherSnoop3.0,2013-04-04 07:15:00,
2013-04-04 02:20:00,48.3,47.5,29.98,North,360,0.0,-999.0,97,0.00,,,0.00,WeatherSnoop3.0,2013-04-04 07:20:00,
2013-04-04 02:25:00,48.4,47.6,29.98,NW,322,0.0,-999.0,97,0.00,,,0.00,WeatherSnoop3.0,2013-04-04 07:25:00,
2013-04-04 02:30:00,48.3,47.5,29.99,NW,321,0.0,-999.0,97,0.00,,,0.00,WeatherSnoop3.0,2013-04-04 07:30:00,
2013-04-04 02:35:00,48.2,47.4,29.99,NW,325,0.0,-999.0,97,0.00,,,0.00,WeatherSnoop3.0,2013-04-04 07:35:00,
2013-04-04 02:40:00,48.1,47.3,29.99,North,360,0.0,-999.0,97,0.00,,,0.00,WeatherSnoop3.0,2013-04-04 07:40:00,
2013-04-04 02:45:00,48.1,47.3,29.99,NW,315,0.0,-999.0,97,0.00,,,0.00,WeatherSnoop3.0,2013-04-04 07:45:00,
2013-04-04 02:50:00,48.0,47.2,29.99,North,360,0.0,-999.0,97,0.00,,,0.00,WeatherSnoop3.0,2013-04-04 07:50:00,
2013-04-04 02:55:00,47.9,47.1,29.99,NW,325,0.0,-999.0,97,0.00,,,0.00,WeatherSnoop3.0,2013-04-04 07:55:00,
2013-04-04 03:00:00,47.9,47.1,29.99,NW,325,0.0,-999.0,97,0.00,,,0.00,WeatherSnoop3.0,2013-04-04 08:00:00,
2013-04-04 03:05:00,47.9,47.1,29.99,NW,324,0.0,-999.0,97,0.00,,,0.00,WeatherSnoop3.0,2013-04-04 08:05:00,
2013-04-04 03:10:00,47.9,47.1,29.99,NW,314,0.0,-999.0,97,0.00,,,0.00,WeatherSnoop3.0,2013-04-04 08:10:00,
2013-04-04 03:15:00,47.9,47.1,29.99,NW,316,0.0,-999.0,97,0.00,,,0.00,WeatherSnoop3.0,2013-04-04 08:15:00,
2013-04-04 03:20:00,47.8,47.0,29.99,NW,313,0.0,-999.0,97,0.00,,,0.00,WeatherSnoop3.0,2013-04-04 08:20:00,
2013-04-04 03:25:00,47.8,47.0,29.99,North,360,0.0,-999.0,97,0.00,,,0.00,WeatherSnoop3.0,2013-04-04 08:25:00,
2013-04-04 03:30:00,47.8,47.0,29.99,NW,315,0.0,-999.0,97,0.00,,,0.00,WeatherSnoop3.0,2013-04-04 08:30:00,
2013-04-04 03:35:00,47.8,47.0,29.99,NNW,342,0.0,-999.0,97,0.00,,,0.00,WeatherSnoop3.0,2013-04-04 08:35:00,
2013-04-04 03:40:00,47.8,47.0,29.99,NW,319,0.0,-999.0,97,0.00,,,0.00,WeatherSnoop3.0,2013-04-04 08:40:00,
2013-04-04 03:45:00,47.8,47.0,29.99,NNW,327,0.0,-999.0,97,0.00,,,0.00,WeatherSnoop3.0,2013-04-04 08:45:00,
2013-04-04 03:50:00,47.8,47.0,29.99,NW,312,0.0,-999.0,97,0.00,,,0.00,WeatherSnoop3.0,2013-04-04 08:50:00,
2013-04-04 03:55:00,47.8,47.0,29.99,North,360,0.0,-999.0,97,0.00,,,0.00,WeatherSnoop3.0,2013-04-04 08:55:00,
2013-04-04 04:00:00,47.8,47.0,29.99,NW,319,0.0,-999.0,97,0.00,,,0.00,WeatherSnoop3.0,2013-04-04 09:00:00,
2013-04-04 04:05:00,47.8,47.0,29.99,North,360,0.0,-999.0,97,0.00,,,0.00,WeatherSnoop3.0,2013-04-04 09:05:00,
2013-04-04 04:10:00,47.8,47.0,29.99,NW,322,0.0,-999.0,97,0.00,,,0.00,WeatherSnoop3.0,2013-04-04 09:10:00,
2013-04-04 04:15:00,47.7,46.9,29.99,North,360,0.0,-999.0,97,0.00,,,0.00,WeatherSnoop3.0,2013-04-04 09:15:00,
2013-04-04 04:20:00,47.8,47.0,29.99,NW,305,0.0,-999.0,97,0.00,,,0.00,WeatherSnoop3.0,2013-04-04 09:20:00,
2013-04-04 04:25:00,47.8,47.0,29.98,North,360,0.0,-999.0,97,0.00,,,0.00,WeatherSnoop3.0,2013-04-04 09:25:00,
2013-04-04 04:30:00,47.7,46.9,29.98,NNW,342,0.0,-999.0,97,0.00,,,0.00,WeatherSnoop3.0,2013-04-04 09:30:00,
2013-04-04 04:35:00,47.8,47.0,29.98,North,360,0.0,-999.0,97,0.00,,,0.00,WeatherSnoop3.0,2013-04-04 09:35:00,
2013-04-04 04:40:00,47.7,46.9,29.99,NW,325,0.0,-999.0,97,0.00,,,0.00,WeatherSnoop3.0,2013-04-04 09:40:00,
2013-04-04 04:45:00,47.8,47.0,29.99,NW,325,0.0,-999.0,97,0.00,,,0.00,WeatherSnoop3.0,2013-04-04 09:45:00,
2013-04-04 04:50:00,47.8,47.0,29.99,NNW,331,0.0,-999.0,97,0.00,,,0.00,WeatherSnoop3.0,2013-04-04 09:50:00,
2013-04-04 04:55:00,47.8,47.0,29.99,NNW,327,0.0,-999.0,97,0.00,,,0.00,WeatherSnoop3.0,2013-04-04 09:55:00,
2013-04-04 05:00:00,47.8,47.0,29.98,NW,309,0.0,-999.0,97,0.00,,,0.00,WeatherSnoop3.0,2013-04-04 10:00:00,
2013-04-04 05:05:00,47.8,47.0,29.99,NW,321,0.0,-999.0,97,0.00,,,0.00,WeatherSnoop3.0,2013-04-04 10:05:00,
2013-04-04 05:10:00,47.6,46.8,29.99,North,360,0.0,-999.0,97,0.00,,,0.00,WeatherSnoop3.0,2013-04-04 10:10:00,
2013-04-04 05:15:00,47.6,47.1,29.99,NW,321,0.0,-999.0,98,0.00,,,0.00,WeatherSnoop3.0,2013-04-04 10:15:00,
2013-04-04 05:20:00,47.6,47.1,29.99,NW,319,0.0,-999.0,98,0.00,,,0.00,WeatherSnoop3.0,2013-04-04 10:20:00,
2013-04-04 05:25:00,47.6,47.1,29.99,NW,326,0.0,-999.0,98,0.00,,,0.00,WeatherSnoop3.0,2013-04-04 10:25:00,
2013-04-04 05:30:00,47.6,47.1,29.99,NNW,327,0.0,-999.0,98,0.00,,,0.00,WeatherSnoop3.0,2013-04-04 10:30:00,
2013-04-04 05:35:00,47.5,47.0,29.99,NW,311,0.0,-999.0,98,0.00,,,0.00,WeatherSnoop3.0,2013-04-04 10:35:00,
2013-04-04 05:40:00,47.6,47.1,29.99,NW,325,0.0,-999.0,98,0.00,,,0.00,WeatherSnoop3.0,2013-04-04 10:40:00,
2013-04-04 05:45:00,47.6,47.1,30.00,North,360,0.0,-999.0,98,0.00,,,0.00,WeatherSnoop3.0,2013-04-04 10:45:00,
2013-04-04 05:50:00,47.5,47.0,30.00,NW,321,0.0,-999.0,98,0.00,,,0.00,WeatherSnoop3.0,2013-04-04 10:50:00,
2013-04-04 05:55:00,47.4,46.9,30.00,NW,321,0.0,-999.0,98,0.00,,,0.00,WeatherSnoop3.0,2013-04-04 10:55:00,
2013-04-04 06:00:00,47.5,47.0,30.00,NW,317,0.0,-999.0,98,0.00,,,0.00,WeatherSnoop3.0,2013-04-04 11:00:00,
2013-04-04 06:05:00,47.4,46.9,30.01,NW,311,0.0,-999.0,98,0.00,,,0.00,WeatherSnoop3.0,2013-04-04 11:05:00,
2013-04-04 06:10:00,47.4,46.9,30.01,NW,311,0.0,-999.0,98,0.00,,,0.00,WeatherSnoop3.0,2013-04-04 11:10:00,
2013-04-04 06:15:00,47.3,46.8,30.01,NW,312,0.0,-999.0,98,0.00,,,0.00,WeatherSnoop3.0,2013-04-04 11:15:00,
2013-04-04 06:20:00,47.2,46.4,30.01,NW,311,0.0,-999.0,97,0.00,,,0.00,WeatherSnoop3.0,2013-04-04 11:20:00,
2013-04-04 06:25:00,47.3,46.5,30.01,NW,311,0.0,-999.0,97,0.00,,,0.00,WeatherSnoop3.0,2013-04-04 11:25:00,
2013-04-04 06:30:00,47.2,46.4,30.01,North,360,0.0,-999.0,97,0.00,,,0.00,WeatherSnoop3.0,2013-04-04 11:30:00,
2013-04-04 06:35:00,47.2,46.7,30.01,NW,306,0.0,-999.0,98,0.00,,,0.00,WeatherSnoop3.0,2013-04-04 11:35:00,
2013-04-04 06:40:00,47.2,46.7,30.01,NW,306,0.0,-999.0,98,0.00,,,0.00,WeatherSnoop3.0,2013-04-04 11:40:00,
2013-04-04 06:45:00,47.3,46.8,30.02,WNW,295,0.0,-999.0,98,0.00,,,0.00,WeatherSnoop3.0,2013-04-04 11:45:00,
2013-04-04 06:50:00,47.2,46.7,30.02,North,360,0.0,-999.0,98,0.00,,,0.00,WeatherSnoop3.0,2013-04-04 11:50:00,
2013-04-04 06:55:00,47.2,46.7,30.02,WNW,302,0.0,-999.0,98,0.00,,,0.00,WeatherSnoop3.0,2013-04-04 11:55:00,
2013-04-04 07:00:00,47.2,46.7,30.02,NW,304,0.0,-999.0,98,0.00,,,0.00,WeatherSnoop3.0,2013-04-04 12:00:00,
2013-04-04 07:05:00,47.2,46.7,30.02,WNW,295,0.0,-999.0,98,0.00,,,0.00,WeatherSnoop3.0,2013-04-04 12:05:00,
2013-04-04 07:10:00,47.2,46.7,30.03,WNW,290,0.0,-999.0,98,0.00,,,0.00,WeatherSnoop3.0,2013-04-04 12:10:00,
2013-04-04 07:15:00,47.2,46.7,30.03,North,360,0.0,-999.0,98,0.00,,,0.00,WeatherSnoop3.0,2013-04-04 12:15:00,
2013-04-04 07:20:00,47.2,46.7,30.03,NW,306,0.0,-999.0,98,0.00,,,0.00,WeatherSnoop3.0,2013-04-04 12:20:00,
2013-04-04 07:25:00,47.2,46.7,30.04,NW,309,0.0,-999.0,98,0.00,,,0.00,WeatherSnoop3.0,2013-04-04 12:25:00,
2013-04-04 07:30:00,47.2,46.7,30.04,West,278,0.0,-999.0,98,0.00,,,0.00,WeatherSnoop3.0,2013-04-04 12:30:00,
2013-04-04 07:35:00,47.3,46.8,30.05,WNW,296,0.0,-999.0,98,0.00,,,0.00,WeatherSnoop3.0,2013-04-04 12:35:00,
2013-04-04 07:40:00,47.2,46.7,30.05,NW,317,0.0,-999.0,98,0.00,,,0.00,WeatherSnoop3.0,2013-04-04 12:40:00,
2013-04-04 07:45:00,47.2,46.7,30.05,NW,311,0.0,-999.0,98,0.00,,,0.00,WeatherSnoop3.0,2013-04-04 12:45:00,
2013-04-04 07:50:00,47.2,46.7,30.05,NW,319,0.0,-999.0,98,0.00,,,0.00,WeatherSnoop3.0,2013-04-04 12:50:00,
2013-04-04 07:55:00,47.1,46.6,30.05,NW,324,0.0,-999.0,98,0.00,,,0.00,WeatherSnoop3.0,2013-04-04 12:55:00,
2013-04-04 08:00:00,47.2,46.7,30.04,NW,320,0.0,-999.0,98,0.00,,,0.00,WeatherSnoop3.0,2013-04-04 13:00:00,
2013-04-04 08:05:00,47.2,46.7,30.05,NW,317,0.0,-999.0,98,0.00,,,0.00,WeatherSnoop3.0,2013-04-04 13:05:00,
2013-04-04 08:10:00,47.3,46.8,30.05,NW,309,0.0,-999.0,98,0.00,,,0.01,WeatherSnoop3.0,2013-04-04 13:10:00,
2013-04-04 08:15:00,47.4,46.9,30.05,NW,312,0.0,-999.0,98,0.00,,,0.01,WeatherSnoop3.0,2013-04-04 13:15:00,
2013-04-04 08:20:00,47.4,46.9,30.05,NW,315,0.0,-999.0,98,0.00,,,0.01,WeatherSnoop3.0,2013-04-04 13:20:00,
2013-04-04 08:25:00,47.4,46.9,30.05,NW,309,0.0,-999.0,98,0.00,,,0.01,WeatherSnoop3.0,2013-04-04 13:25:00,
2013-04-04 08:30:00,47.5,47.0,30.05,NW,315,0.0,-999.0,98,0.00,,,0.01,WeatherSnoop3.0,2013-04-04 13:30:00,
2013-04-04 08:35:00,47.5,47.0,30.05,NW,321,0.0,-999.0,98,0.00,,,0.01,WeatherSnoop3.0,2013-04-04 13:35:00,
2013-04-04 08:40:00,47.6,47.1,30.04,NNW,331,0.0,-999.0,98,0.00,,,0.01,WeatherSnoop3.0,2013-04-04 13:40:00,
2013-04-04 08:45:00,48.2,47.7,30.04,North,360,0.0,-999.0,98,0.00,,,0.01,WeatherSnoop3.0,2013-04-04 13:45:00,
2013-04-04 08:50:00,48.0,47.5,30.05,North,360,0.0,-999.0,98,0.00,,,0.01,WeatherSnoop3.0,2013-04-04 13:50:00,
2013-04-04 08:55:00,48.1,47.6,30.06,NW,309,0.0,-999.0,98,0.00,,,0.01,WeatherSnoop3.0,2013-04-04 13:55:00,
2013-04-04 09:00:00,48.0,47.2,30.06,NW,306,0.0,-999.0,97,0.00,,,0.01,WeatherSnoop3.0,2013-04-04 14:00:00,
2013-04-04 09:05:00,47.8,47.0,30.06,WNW,284,0.0,-999.0,97,0.00,,,0.01,WeatherSnoop3.0,2013-04-04 14:05:00,
2013-04-04 09:10:00,47.8,47.0,30.07,North,360,0.0,-999.0,97,0.00,,,0.01,WeatherSnoop3.0,2013-04-04 14:10:00,
2013-04-04 09:15:00,47.7,46.9,30.07,NW,324,0.0,-999.0,97,0.00,,,0.01,WeatherSnoop3.0,2013-04-04 14:15:00,
2013-04-04 09:20:00,47.7,46.9,30.07,NW,306,0.0,-999.0,97,0.00,,,0.01,WeatherSnoop3.0,2013-04-04 14:20:00,
2013-04-04 09:25:00,47.8,47.0,30.07,WNW,300,0.0,-999.0,97,0.00,,,0.01,WeatherSnoop3.0,2013-04-04 14:25:00,
2013-04-04 09:30:00,47.7,46.9,30.07,WNW,288,0.0,-999.0,97,0.00,,,0.01,WeatherSnoop3.0,2013-04-04 14:30:00,
2013-04-04 09:35:00,47.7,46.9,30.07,NW,304,0.0,-999.0,97,0.00,,,0.01,WeatherSnoop3.0,2013-04-04 14:35:00,
2013-04-04 09:40:00,47.9,47.1,30.07,NW,304,0.0,-999.0,97,0.00,,,0.01,WeatherSnoop3.0,2013-04-04 14:40:00,
2013-04-04 09:45:00,47.9,47.1,30.08,WNW,288,0.0,-999.0,97,0.00,,,0.01,WeatherSnoop3.0,2013-04-04 14:45:00,
2013-04-04 09:50:00,47.8,47.0,30.08,North,360,0.0,-999.0,97,0.00,,,0.01,WeatherSnoop3.0,2013-04-04 14:50:00,
2013-04-04 09:55:00,47.8,47.0,30.08,NW,304,0.0,-999.0,97,0.00,,,0.01,WeatherSnoop3.0,2013-04-04 14:55:00,
2013-04-04 10:00:00,47.7,46.9,30.08,WNW,292,0.0,-999.0,97,0.00,,,0.01,WeatherSnoop3.0,2013-04-04 15:00:00,
2013-04-04 10:05:00,47.9,47.1,30.07,North,360,0.0,-999.0,97,0.00,,,0.01,WeatherSnoop3.0,2013-04-04 15:05:00,
2013-04-04 10:10:00,47.9,47.1,30.07,North,360,0.0,-999.0,97,0.00,,,0.01,WeatherSnoop3.0,2013-04-04 15:10:00,
2013-04-04 10:15:00,47.9,47.1,30.08,WNW,294,0.0,-999.0,97,0.00,,,0.01,WeatherSnoop3.0,2013-04-04 15:15:00,
2013-04-04 10:20:00,48.0,47.2,30.08,NW,316,0.0,-999.0,97,0.00,,,0.01,WeatherSnoop3.0,2013-04-04 15:20:00,
2013-04-04 10:25:00,48.0,47.2,30.08,WNW,302,0.0,-999.0,97,0.00,,,0.01,WeatherSnoop3.0,2013-04-04 15:25:00,
2013-04-04 10:31:00,47.9,47.1,30.08,WNW,297,0.0,-999.0,97,0.00,,,0.01,WeatherSnoop3.0,2013-04-04 15:31:00,
2013-04-04 10:36:00,48.1,47.3,30.08,WNW,296,0.0,-999.0,97,0.00,,,0.01,WeatherSnoop3.0,2013-04-04 15:36:00,
2013-04-04 10:41:00,48.2,47.4,30.08,West,265,0.0,-999.0,97,0.00,,,0.01,WeatherSnoop3.0,2013-04-04 15:41:00,
2013-04-04 10:46:00,48.2,47.4,30.08,NW,308,0.0,-999.0,97,0.00,,,0.01,WeatherSnoop3.0,2013-04-04 15:46:00,
2013-04-04 10:51:00,48.4,47.3,30.08,NW,305,0.0,-999.0,96,0.00,,,0.01,WeatherSnoop3.0,2013-04-04 15:51:00,
2013-04-04 10:56:00,48.6,47.5,30.08,WNW,290,0.0,-999.0,96,0.00,,,0.01,WeatherSnoop3.0,2013-04-04 15:56:00,
2013-04-04 11:01:00,48.7,47.6,30.09,WNW,298,0.0,-999.0,96,0.00,,,0.01,WeatherSnoop3.0,2013-04-04 16:01:00,
2013-04-04 11:25:00,49.1,47.7,30.09,North,360,0.0,-999.0,95,0.00,,,0.01,WeatherSnoop3.0,2013-04-04 16:25:00,
2013-04-04 11:30:00,49.2,47.8,30.09,West,267,0.0,-999.0,95,0.00,,,0.01,WeatherSnoop3.0,2013-04-04 16:30:00,
2013-04-04 11:35:00,49.4,48.0,30.08,WNW,301,0.0,-999.0,95,0.00,,,0.01,WeatherSnoop3.0,2013-04-04 16:35:00,
2013-04-04 11:40:00,49.3,47.9,30.08,West,279,0.0,-999.0,95,0.00,,,0.01,WeatherSnoop3.0,2013-04-04 16:40:00,
2013-04-04 11:45:00,49.4,48.0,30.08,NW,311,0.0,-999.0,95,0.00,,,0.01,WeatherSnoop3.0,2013-04-04 16:45:00,
2013-04-04 11:50:00,49.6,48.2,30.08,NW,313,0.0,-999.0,95,0.00,,,0.01,WeatherSnoop3.0,2013-04-04 16:50:00,
2013-04-04 11:55:00,49.7,48.0,30.07,WNW,293,0.0,-999.0,94,0.00,,,0.01,WeatherSnoop3.0,2013-04-04 16:55:00,
2013-04-04 12:00:00,50.3,48.6,30.07,WNW,283,0.0,-999.0,94,0.00,,,0.01,WeatherSnoop3.0,2013-04-04 17:00:00,
2013-04-04 12:05:00,50.5,48.6,30.06,NW,310,0.0,-999.0,93,0.00,,,0.01,WeatherSnoop3.0,2013-04-04 17:05:00,
2013-04-04 12:10:00,50.6,48.7,30.07,NW,313,0.0,-999.0,93,0.00,,,0.01,WeatherSnoop3.0,2013-04-04 17:10:00,
2013-04-04 12:15:00,50.8,48.6,30.07,West,271,0.0,-999.0,92,0.00,,,0.01,WeatherSnoop3.0,2013-04-04 17:15:00,
2013-04-04 12:20:00,50.9,48.7,30.07,WNW,282,0.0,-999.0,92,0.00,,,0.01,WeatherSnoop3.0,2013-04-04 17:20:00,
2013-04-04 12:25:00,51.1,48.9,30.07,WNW,294,0.0,-999.0,92,0.00,,,0.01,WeatherSnoop3.0,2013-04-04 17:25:00,
2013-04-04 12:30:00,51.2,48.7,30.07,NW,309,0.0,-999.0,91,0.00,,,0.01,WeatherSnoop3.0,2013-04-04 17:30:00,
2013-04-04 12:35:00,51.2,48.7,30.07,NW,320,0.0,-999.0,91,0.00,,,0.01,WeatherSnoop3.0,2013-04-04 17:35:00,
2013-04-04 12:41:00,51.5,49.0,30.07,WNW,296,0.0,-999.0,91,0.00,,,0.01,WeatherSnoop3.0,2013-04-04 17:41:00,
2013-04-04 12:45:00,51.4,48.6,30.07,NW,315,0.0,-999.0,90,0.00,,,0.01,WeatherSnoop3.0,2013-04-04 17:45:00,
2013-04-04 12:51:00,51.5,48.7,30.06,NW,311,0.0,-999.0,90,0.00,,,0.01,WeatherSnoop3.0,2013-04-04 17:51:00,
2013-04-04 12:56:00,51.5,48.4,30.06,WNW,297,0.0,-999.0,89,0.00,,,0.01,WeatherSnoop3.0,2013-04-04 17:56:00,
2013-04-04 13:01:00,51.9,49.1,30.06,WNW,302,0.0,-999.0,90,0.00,,,0.01,WeatherSnoop3.0,2013-04-04 18:01:00,
2013-04-04 13:06:00,52.1,49.0,30.06,West,275,0.0,-999.0,89,0.00,,,0.01,WeatherSnoop3.0,2013-04-04 18:06:00,
2013-04-04 13:11:00,51.8,48.1,30.06,West,271,0.0,-999.0,87,0.00,,,0.01,WeatherSnoop3.0,2013-04-04 18:11:00,
2013-04-04 13:16:00,51.9,48.5,30.06,WNW,290,0.0,-999.0,88,0.00,,,0.01,WeatherSnoop3.0,2013-04-04 18:16:00,
2013-04-04 13:21:00,52.2,48.8,30.05,NW,324,0.0,-999.0,88,0.00,,,0.01,WeatherSnoop3.0,2013-04-04 18:21:00,
2013-04-04 13:26:00,52.2,48.8,30.04,West,281,0.0,-999.0,88,0.00,,,0.01,WeatherSnoop3.0,2013-04-04 18:26:00,
2013-04-04 13:31:00,52.7,49.2,30.04,NNW,327,0.0,-999.0,88,0.00,,,0.01,WeatherSnoop3.0,2013-04-04 18:31:00,
2013-04-04 13:36:00,52.7,48.9,30.04,WNW,291,0.0,-999.0,87,0.00,,,0.01,WeatherSnoop3.0,2013-04-04 18:36:00,
2013-04-04 13:41:00,52.8,48.7,30.04,WNW,289,0.0,-999.0,86,0.00,,,0.01,WeatherSnoop3.0,2013-04-04 18:41:00,
2013-04-04 13:46:00,53.0,48.9,30.03,West,277,0.0,-999.0,86,0.00,,,0.01,WeatherSnoop3.0,2013-04-04 18:46:00,
2013-04-04 13:51:00,53.0,48.9,30.03,NW,311,0.0,-999.0,86,0.00,,,0.01,WeatherSnoop3.0,2013-04-04 18:51:00,
2013-04-04 13:56:00,53.1,49.0,30.03,WNW,282,0.0,-999.0,86,0.00,,,0.01,WeatherSnoop3.0,2013-04-04 18:56:00,
2013-04-04 14:01:00,53.1,49.0,30.03,WNW,286,0.0,-999.0,86,0.00,,,0.01,WeatherSnoop3.0,2013-04-04 19:01:00,
2013-04-04 14:06:00,53.1,49.0,30.03,NW,311,0.0,-999.0,86,0.00,,,0.01,WeatherSnoop3.0,2013-04-04 19:06:00,
2013-04-04 14:11:00,53.2,48.8,30.03,WNW,297,0.0,-999.0,85,0.00,,,0.01,WeatherSnoop3.0,2013-04-04 19:11:00,
2013-04-04 14:16:00,53.3,48.9,30.02,WNW,282,0.0,-999.0,85,0.00,,,0.01,WeatherSnoop3.0,2013-04-04 19:16:00,
2013-04-04 14:21:00,53.4,49.0,30.02,West,279,0.0,-999.0,85,0.00,,,0.01,WeatherSnoop3.0,2013-04-04 19:21:00,
2013-04-04 14:26:00,53.7,49.3,30.02,NNW,331,0.0,-999.0,85,0.00,,,0.01,WeatherSnoop3.0,2013-04-04 19:26:00,
2013-04-04 14:43:00,54.4,49.3,30.01,WSW,252,0.0,-999.0,83,0.00,,,0.01,WeatherSnoop3.0,2013-04-04 19:43:00,
2013-04-04 14:48:00,54.2,49.1,30.01,NW,321,0.0,-999.0,83,0.00,,,0.01,WeatherSnoop3.0,2013-04-04 19:48:00,
2013-04-04 14:53:00,54.1,49.4,30.01,WNW,288,0.0,-999.0,84,0.00,,,0.01,WeatherSnoop3.0,2013-04-04 19:53:00,
2013-04-04 14:58:00,54.2,49.5,30.01,NW,310,0.0,-999.0,84,0.00,,,0.01,WeatherSnoop3.0,2013-04-04 19:58:00,
2013-04-04 15:03:00,54.3,49.6,30.01,WNW,292,0.0,-999.0,84,0.00,,,0.01,WeatherSnoop3.0,2013-04-04 20:03:00,
2013-04-04 15:08:00,54.0,49.3,30.01,NW,318,0.0,-999.0,84,0.00,,,0.01,WeatherSnoop3.0,2013-04-04 20:08:00,
2013-04-04 15:13:00,53.8,49.1,30.01,West,273,0.0,-999.0,84,0.00,,,0.01,WeatherSnoop3.0,2013-04-04 20:13:00,
2013-04-04 15:18:00,53.8,49.1,30.01,NW,325,0.0,-999.0,84,0.00,,,0.01,WeatherSnoop3.0,2013-04-04 20:18:00,
2013-04-04 15:23:00,53.6,48.9,30.01,NW,309,0.0,-999.0,84,0.00,,,0.01,WeatherSnoop3.0,2013-04-04 20:23:00,
2013-04-04 15:28:00,53.4,48.7,30.01,West,278,0.0,-999.0,84,0.00,,,0.01,WeatherSnoop3.0,2013-04-04 20:28:00,
2013-04-04 15:33:00,53.5,49.1,30.01,NW,315,0.0,-999.0,85,0.00,,,0.01,WeatherSnoop3.0,2013-04-04 20:33:00,
2013-04-04 15:38:00,53.7,49.0,30.00,NW,321,0.0,-999.0,84,0.00,,,0.01,WeatherSnoop3.0,2013-04-04 20:38:00,
2013-04-04 15:43:00,53.6,48.6,30.01,NW,315,0.0,-999.0,83,0.00,,,0.01,WeatherSnoop3.0,2013-04-04 20:43:00,
2013-04-04 15:48:00,53.5,48.5,30.01,WNW,303,0.0,-999.0,83,0.00,,,0.01,WeatherSnoop3.0,2013-04-04 20:48:00,
2013-04-04 15:53:00,53.3,48.3,30.01,WNW,302,0.0,-999.0,83,0.00,,,0.01,WeatherSnoop3.0,2013-04-04 20:53:00,
2013-04-04 15:58:00,53.3,48.6,30.01,NW,317,0.0,-999.0,84,0.00,,,0.01,WeatherSnoop3.0,2013-04-04 20:58:00,
2013-04-04 16:03:00,53.2,48.2,30.01,WNW,302,0.0,-999.0,83,0.00,,,0.01,WeatherSnoop3.0,2013-04-04 21:03:00,
2013-04-04 16:08:00,53.2,48.5,30.01,NW,315,0.0,-999.0,84,0.00,,,0.01,WeatherSnoop3.0,2013-04-04 21:08:00,
2013-04-04 16:13:00,53.0,48.3,30.01,NW,325,0.0,-999.0,84,0.00,,,0.01,WeatherSnoop3.0,2013-04-04 21:13:00,
2013-04-04 16:18:00,52.7,48.0,30.01,North,355,0.0,-999.0,84,0.00,,,0.01,WeatherSnoop3.0,2013-04-04 21:18:00,
2013-04-04 16:23:00,52.5,48.1,30.01,NW,315,0.0,-999.0,85,0.00,,,0.01,WeatherSnoop3.0,2013-04-04 21:23:00,
2013-04-04 16:29:00,52.2,47.5,30.01,NW,314,0.0,-999.0,84,0.00,,,0.01,WeatherSnoop3.0,2013-04-04 21:29:00,
2013-04-04 16:35:00,52.1,47.7,30.01,NW,309,0.0,-999.0,85,0.00,,,0.01,WeatherSnoop3.0,2013-04-04 21:35:00,
2013-04-04 16:40:00,52.1,48.0,30.01,NNW,327,0.0,-999.0,86,0.00,,,0.01,WeatherSnoop3.0,2013-04-04 21:40:00,
2013-04-04 16:45:00,52.0,47.9,30.01,NW,311,0.0,-999.0,86,0.00,,,0.01,WeatherSnoop3.0,2013-04-04 21:45:00,
2013-04-04 16:50:00,51.8,47.4,30.01,NW,311,0.0,-999.0,85,0.00,,,0.01,WeatherSnoop3.0,2013-04-04 21:50:00,
2013-04-04 16:55:00,51.9,47.8,30.01,NW,309,0.0,-999.0,86,0.00,,,0.01,WeatherSnoop3.0,2013-04-04 21:55:00,
2013-04-04 17:00:00,51.9,47.5,30.01,NNW,327,0.0,-999.0,85,0.00,,,0.01,WeatherSnoop3.0,2013-04-04 22:00:00,
2013-04-04 17:05:00,52.0,47.9,30.01,North,360,0.0,-999.0,86,0.00,,,0.01,WeatherSnoop3.0,2013-04-04 22:05:00,
2013-04-04 17:10:00,51.6,47.6,30.01,NNW,348,0.0,-999.0,86,0.00,,,0.01,WeatherSnoop3.0,2013-04-04 22:10:00,
2013-04-04 17:15:00,51.5,47.5,30.02,NNW,329,0.0,-999.0,86,0.00,,,0.01,WeatherSnoop3.0,2013-04-04 22:15:00,
2013-04-04 17:20:00,51.3,47.3,30.01,NW,323,0.0,-999.0,86,0.00,,,0.01,WeatherSnoop3.0,2013-04-04 22:20:00,
2013-04-04 17:25:00,51.3,47.6,30.02,WNW,294,0.0,-999.0,87,0.00,,,0.01,WeatherSnoop3.0,2013-04-04 22:25:00,
2013-04-04 17:30:00,51.3,47.3,30.02,NW,317,0.0,-999.0,86,0.00,,,0.01,WeatherSnoop3.0,2013-04-04 22:30:00,
2013-04-04 17:35:00,51.2,47.2,30.02,NW,315,0.0,-999.0,86,0.00,,,0.01,WeatherSnoop3.0,2013-04-04 22:35:00,
2013-04-04 17:40:00,51.2,47.2,30.03,NW,319,0.0,-999.0,86,0.00,,,0.01,WeatherSnoop3.0,2013-04-04 22:40:00,
2013-04-04 17:45:00,51.3,47.3,30.02,NW,310,0.0,-999.0,86,0.00,,,0.01,WeatherSnoop3.0,2013-04-04 22:45:00,
2013-04-04 17:50:00,51.3,47.3,30.02,NW,313,0.0,-999.0,86,0.00,,,0.01,WeatherSnoop3.0,2013-04-04 22:50:00,
2013-04-04 17:55:00,51.0,47.0,30.03,NW,321,0.0,-999.0,86,0.00,,,0.01,WeatherSnoop3.0,2013-04-04 22:55:00,
2013-04-04 18:00:00,51.0,47.0,30.03,NW,315,0.0,-999.0,86,0.00,,,0.01,WeatherSnoop3.0,2013-04-04 23:00:00,
2013-04-04 18:05:00,50.9,46.9,30.03,NW,310,0.0,-999.0,86,0.00,,,0.01,WeatherSnoop3.0,2013-04-04 23:05:00,
2013-04-04 18:10:00,50.8,46.8,30.03,WNW,292,0.0,-999.0,86,0.00,,,0.01,WeatherSnoop3.0,2013-04-04 23:10:00,
2013-04-04 18:15:00,50.6,46.9,30.03,WNW,290,0.0,-999.0,87,0.00,,,0.01,WeatherSnoop3.0,2013-04-04 23:15:00,
2013-04-04 18:20:00,50.5,46.8,30.04,WNW,301,0.0,-999.0,87,0.00,,,0.01,WeatherSnoop3.0,2013-04-04 23:20:00,
2013-04-04 18:25:00,50.4,46.7,30.04,NW,313,0.0,-999.0,87,0.00,,,0.01,WeatherSnoop3.0,2013-04-04 23:25:00,
2013-04-04 18:30:00,50.1,46.4,30.04,WNW,300,0.0,-999.0,87,0.00,,,0.01,WeatherSnoop3.0,2013-04-04 23:30:00,
2013-04-04 18:35:00,49.9,46.2,30.04,NW,314,0.0,-999.0,87,0.00,,,0.01,WeatherSnoop3.0,2013-04-04 23:35:00,
2013-04-04 18:40:00,49.8,46.1,30.04,West,281,0.0,-999.0,87,0.00,,,0.01,WeatherSnoop3.0,2013-04-04 23:40:00,
2013-04-04 18:45:00,49.7,46.3,30.04,NW,312,0.0,-999.0,88,0.00,,,0.01,WeatherSnoop3.0,2013-04-04 23:45:00,
2013-04-04 18:50:00,49.6,45.9,30.03,NW,308,0.0,-999.0,87,0.00,,,0.01,WeatherSnoop3.0,2013-04-04 23:50:00,
2013-04-04 18:56:00,49.4,46.0,30.04,North,360,0.0,-999.0,88,0.00,,,0.01,WeatherSnoop3.0,2013-04-04 23:56:00,
2013-04-04 19:01:00,49.3,45.6,30.04,NW,320,0.0,-999.0,87,0.00,,,0.01,WeatherSnoop3.0,2013-04-05 00:01:00,
2013-04-04 19:06:00,49.2,45.5,30.04,NW,315,0.0,-999.0,87,0.00,,,0.01,WeatherSnoop3.0,2013-04-05 00:06:00,
2013-04-04 19:11:00,49.1,45.4,30.04,NW,311,0.0,-999.0,87,0.00,,,0.01,WeatherSnoop3.0,2013-04-05 00:11:00,
2013-04-04 19:16:00,49.1,45.4,30.04,NW,319,0.0,-999.0,87,0.00,,,0.01,WeatherSnoop3.0,2013-04-05 00:16:00,
2013-04-04 19:21:00,49.0,45.3,30.04,NW,323,0.0,-999.0,87,0.00,,,0.01,WeatherSnoop3.0,2013-04-05 00:21:00,
2013-04-04 19:26:00,49.0,45.3,30.04,WNW,293,0.0,-999.0,87,0.00,,,0.01,WeatherSnoop3.0,2013-04-05 00:26:00,
2013-04-04 19:31:00,49.0,45.3,30.05,NW,322,0.0,-999.0,87,0.00,,,0.01,WeatherSnoop3.0,2013-04-05 00:31:00,
2013-04-04 19:36:00,48.9,45.2,30.05,NW,307,0.0,-999.0,87,0.00,,,0.01,WeatherSnoop3.0,2013-04-05 00:36:00,
2013-04-04 19:41:00,48.9,45.2,30.05,WNW,300,0.0,-999.0,87,0.00,,,0.01,WeatherSnoop3.0,2013-04-05 00:41:00,
2013-04-04 19:46:00,48.9,45.2,30.05,West,281,0.0,-999.0,87,0.00,,,0.01,WeatherSnoop3.0,2013-04-05 00:46:00,
2013-04-04 19:51:00,48.8,45.4,30.06,WNW,296,0.0,-999.0,88,0.00,,,0.01,WeatherSnoop3.0,2013-04-05 00:51:00,
2013-04-04 19:56:00,48.8,45.4,30.06,WNW,300,0.0,-999.0,88,0.00,,,0.01,WeatherSnoop3.0,2013-04-05 00:56:00,
2013-04-04 20:01:00,48.7,45.3,30.06,NW,309,0.0,-999.0,88,0.00,,,0.01,WeatherSnoop3.0,2013-04-05 01:01:00,
2013-04-04 20:06:00,48.6,45.2,30.06,WNW,294,0.0,-999.0,88,0.00,,,0.01,WeatherSnoop3.0,2013-04-05 01:06:00,
2013-04-04 20:11:00,48.6,45.2,30.06,NW,311,0.0,-999.0,88,0.00,,,0.01,WeatherSnoop3.0,2013-04-05 01:11:00,
2013-04-04 20:16:00,48.6,45.2,30.06,WNW,302,0.0,-999.0,88,0.00,,,0.01,WeatherSnoop3.0,2013-04-05 01:16:00,
2013-04-04 20:21:00,48.6,45.2,30.06,NW,321,0.0,-999.0,88,0.00,,,0.01,WeatherSnoop3.0,2013-04-05 01:21:00,
2013-04-04 20:26:00,48.6,45.2,30.07,NNW,328,0.0,-999.0,88,0.00,,,0.01,WeatherSnoop3.0,2013-04-05 01:26:00,
2013-04-04 20:31:00,48.5,45.1,30.07,NW,322,0.0,-999.0,88,0.00,,,0.01,WeatherSnoop3.0,2013-04-05 01:31:00,
2013-04-04 20:36:00,48.5,45.4,30.07,NNW,340,0.0,-999.0,89,0.00,,,0.01,WeatherSnoop3.0,2013-04-05 01:36:00,
2013-04-04 20:41:00,48.4,45.3,30.07,NNW,331,0.0,-999.0,89,0.00,,,0.01,WeatherSnoop3.0,2013-04-05 01:41:00,
2013-04-04 20:46:00,48.4,45.3,30.07,NNW,335,0.0,-999.0,89,0.00,,,0.01,WeatherSnoop3.0,2013-04-05 01:46:00,
2013-04-04 20:51:00,48.3,45.2,30.07,WNW,300,0.0,-999.0,89,0.00,,,0.01,WeatherSnoop3.0,2013-04-05 01:51:00,
2013-04-04 20:56:00,48.3,45.2,30.08,NW,315,0.0,-999.0,89,0.00,,,0.01,WeatherSnoop3.0,2013-04-05 01:56:00,
2013-04-04 21:01:00,48.3,45.2,30.08,WNW,300,0.0,-999.0,89,0.00,,,0.02,WeatherSnoop3.0,2013-04-05 02:01:00,
2013-04-04 21:07:00,48.3,45.2,30.08,NW,304,0.0,-999.0,89,0.00,,,0.02,WeatherSnoop3.0,2013-04-05 02:07:00,
2013-04-04 21:12:00,48.2,45.1,30.08,NW,309,0.0,-999.0,89,0.00,,,0.02,WeatherSnoop3.0,2013-04-05 02:12:00,
2013-04-04 21:17:00,48.1,45.3,30.09,North,355,0.0,-999.0,90,0.00,,,0.02,WeatherSnoop3.0,2013-04-05 02:17:00,
2013-04-04 21:22:00,47.9,45.4,30.09,NW,306,0.0,-999.0,91,0.00,,,0.02,WeatherSnoop3.0,2013-04-05 02:22:00,
2013-04-04 21:27:00,47.8,45.3,30.09,NW,306,0.0,-999.0,91,0.00,,,0.02,WeatherSnoop3.0,2013-04-05 02:27:00,
2013-04-04 21:32:00,47.7,45.5,30.09,NW,306,0.0,-999.0,92,0.00,,,0.02,WeatherSnoop3.0,2013-04-05 02:32:00,
2013-04-04 21:37:00,47.6,45.7,30.09,NW,306,0.0,-999.0,93,0.00,,,0.02,WeatherSnoop3.0,2013-04-05 02:37:00,
2013-04-04 21:42:00,47.4,45.5,30.10,WNW,303,0.0,-999.0,93,0.00,,,0.02,WeatherSnoop3.0,2013-04-05 02:42:00,
2013-04-04 21:47:00,47.4,45.5,30.10,WNW,300,0.0,-999.0,93,0.00,,,0.02,WeatherSnoop3.0,2013-04-05 02:47:00,
2013-04-04 21:52:00,47.3,45.7,30.10,NW,317,0.0,-999.0,94,0.00,,,0.02,WeatherSnoop3.0,2013-04-05 02:52:00,
2013-04-04 21:57:00,47.2,45.6,30.10,North,360,0.0,-999.0,94,0.00,,,0.02,WeatherSnoop3.0,2013-04-05 02:57:00,
2013-04-04 22:02:00,47.2,45.6,30.10,NW,325,0.0,-999.0,94,0.00,,,0.02,WeatherSnoop3.0,2013-04-05 03:02:00,
2013-04-04 22:07:00,47.2,45.6,30.10,NW,309,0.0,-999.0,94,0.00,,,0.02,WeatherSnoop3.0,2013-04-05 03:07:00,
2013-04-04 22:12:00,47.2,45.6,30.10,NW,316,0.0,-999.0,94,0.00,,,0.02,WeatherSnoop3.0,2013-04-05 03:12:00,
2013-04-04 22:17:00,47.3,45.7,30.10,North,360,0.0,-999.0,94,0.00,,,0.02,WeatherSnoop3.0,2013-04-05 03:17:00,
2013-04-04 22:22:00,47.3,45.7,30.10,NW,320,0.0,-999.0,94,0.00,,,0.02,WeatherSnoop3.0,2013-04-05 03:22:00,
2013-04-04 22:27:00,47.4,45.5,30.10,NW,317,0.0,-999.0,93,0.00,,,0.02,WeatherSnoop3.0,2013-04-05 03:27:00,
2013-04-04 22:32:00,47.4,45.5,30.10,NW,321,0.0,-999.0,93,0.00,,,0.02,WeatherSnoop3.0,2013-04-05 03:32:00,
2013-04-04 22:37:00,47.5,45.6,30.10,NW,315,0.0,-999.0,93,0.00,,,0.02,WeatherSnoop3.0,2013-04-05 03:37:00,
2013-04-04 22:42:00,47.6,45.7,30.11,NW,313,0.0,-999.0,93,0.00,,,0.02,WeatherSnoop3.0,2013-04-05 03:42:00,
2013-04-04 22:47:00,47.6,45.7,30.10,WNW,290,0.0,-999.0,93,0.00,,,0.02,WeatherSnoop3.0,2013-04-05 03:47:00,
2013-04-04 22:52:00,47.6,45.4,30.11,NW,323,0.0,-999.0,92,0.00,,,0.02,WeatherSnoop3.0,2013-04-05 03:52:00,
2013-04-04 22:57:00,47.6,45.4,30.10,NW,320,0.0,-999.0,92,0.00,,,0.02,WeatherSnoop3.0,2013-04-05 03:57:00,
2013-04-04 23:00:00,47.7,45.5,30.10,NW,322,0.0,-999.0,92,0.00,,,0.02,WeatherSnoop3.0,2013-04-05 04:00:00,
2013-04-04 23:05:00,47.7,45.5,30.11,WNW,302,0.0,-999.0,92,0.00,,,0.02,WeatherSnoop3.0,2013-04-05 04:05:00,
2013-04-04 23:10:00,47.7,45.5,30.11,WNW,301,0.0,-999.0,92,0.00,,,0.02,WeatherSnoop3.0,2013-04-05 04:10:00,
2013-04-04 23:15:00,47.8,45.6,30.11,North,360,0.0,-999.0,92,0.00,,,0.02,WeatherSnoop3.0,2013-04-05 04:15:00,
2013-04-04 23:20:00,47.8,45.3,30.11,NW,314,0.0,-999.0,91,0.00,,,0.02,WeatherSnoop3.0,2013-04-05 04:20:00,
2013-04-04 23:25:00,47.8,45.3,30.11,NW,315,0.0,-999.0,91,0.00,,,0.02,WeatherSnoop3.0,2013-04-05 04:25:00,
2013-04-04 23:30:00,47.8,45.3,30.11,NNW,327,0.0,-999.0,91,0.00,,,0.02,WeatherSnoop3.0,2013-04-05 04:30:00,
2013-04-04 23:35:00,47.8,45.3,30.11,NW,326,0.0,-999.0,91,0.00,,,0.02,WeatherSnoop3.0,2013-04-05 04:35:00,
2013-04-04 23:40:00,47.8,45.0,30.11,NNW,329,0.0,-999.0,90,0.00,,,0.02,WeatherSnoop3.0,2013-04-05 04:40:00,
2013-04-04 23:45:00,47.9,45.1,30.11,NNW,331,0.0,-999.0,90,0.00,,,0.02,WeatherSnoop3.0,2013-04-05 04:45:00,
2013-04-04 23:50:00,47.9,45.1,30.11,NNW,329,0.0,-999.0,90,0.00,,,0.02,WeatherSnoop3.0,2013-04-05 04:50:00,
2013-04-04 23:55:00,47.8,45.0,30.11,NW,315,0.0,-999.0,90,0.00,,,0.02,WeatherSnoop3.0,2013-04-05 04:55:00,